createdAt,value
2023-05-12T00:03:23.992Z,11.67
2023-05-12T00:08:26.819Z,11.68
2023-05-12T00:13:31.197Z,11.72
2023-05-12T00:18:33.969Z,11.72
2023-05-12T00:23:36.803Z,11.71
2023-05-12T00:28:40.924Z,11.73
2023-05-12T00:33:43.712Z,11.79
2023-05-12T00:38:46.400Z,11.76
2023-05-12T00:43:50.510Z,11.75
2023-05-12T00:48:53.774Z,11.76
2023-05-12T00:53:57.350Z,11.78
2023-05-12T00:59:01.475Z,11.78
2023-05-12T01:04:05.064Z,11.81
2023-05-12T01:09:09.190Z,11.84
2023-05-12T01:14:13.829Z,11.83
2023-05-12T01:19:34.657Z,11.83
2023-05-12T01:24:43.720Z,11.84
2023-05-12T01:29:49.115Z,11.73
2023-05-12T01:34:53.798Z,11.64
2023-05-12T01:39:57.377Z,11.65
2023-05-12T01:45:01.853Z,11.67
2023-05-12T01:50:06.903Z,11.65
2023-05-12T01:55:10.240Z,11.56
2023-05-12T02:00:22.534Z,11.57
2023-05-12T02:05:28.618Z,11.54
2023-05-12T02:10:31.946Z,11.56
2023-05-12T02:15:36.272Z,11.46
2023-05-12T02:20:39.244Z,11.44
2023-05-12T02:25:42.409Z,11.42
2023-05-12T02:30:52.910Z,11.39
2023-05-12T02:35:56.225Z,11.40
2023-05-12T02:40:59.636Z,11.40
2023-05-12T02:46:04.559Z,11.41
2023-05-12T02:51:08.050Z,11.33
2023-05-12T02:56:10.973Z,11.30
2023-05-12T03:01:15.191Z,11.21
2023-05-12T03:06:18.195Z,11.29
2023-05-12T03:11:21.407Z,11.19
2023-05-12T03:16:25.564Z,11.23
2023-05-12T03:21:29.038Z,11.23
2023-05-12T03:26:31.901Z,11.20
2023-05-12T03:31:36.439Z,11.15
2023-05-12T03:36:40.959Z,11.06
2023-05-12T03:41:43.819Z,11.04
2023-05-12T03:46:48.123Z,11.11
2023-05-12T03:51:51.022Z,11.05
2023-05-12T03:56:55.052Z,11.06
2023-05-12T04:02:00.070Z,11.07
2023-05-12T04:07:03.899Z,11.02
2023-05-12T04:25:07.157Z,11.06
2023-05-12T04:30:11.586Z,11.05
2023-05-12T04:35:19.237Z,11.07
2023-05-12T04:40:23.772Z,11.12
2023-05-12T04:45:26.826Z,11.13
2023-05-12T04:50:31.108Z,11.17
2023-05-12T04:55:35.167Z,11.23
2023-05-12T05:00:38.152Z,11.23
2023-05-12T05:05:42.521Z,11.39
2023-05-12T05:10:48.021Z,11.51
2023-05-12T05:15:52.149Z,11.61
2023-05-12T05:20:58.868Z,11.61
2023-05-12T05:26:03.463Z,11.66
2023-05-12T05:31:07.410Z,11.60
2023-05-12T05:36:14.710Z,11.50
2023-05-12T05:41:19.587Z,11.55
2023-05-12T05:46:22.469Z,11.56
2023-05-12T05:51:27.317Z,11.72
2023-05-12T05:56:32.833Z,11.98
2023-05-12T06:01:35.742Z,12.14
2023-05-12T06:06:41.387Z,11.99
2023-05-12T06:11:44.969Z,12.08
2023-05-12T06:16:47.803Z,11.83
2023-05-12T06:21:53.230Z,11.78
2023-05-12T06:26:57.213Z,11.93
2023-05-12T06:32:03.857Z,12.02
2023-05-12T06:37:08.747Z,12.15
2023-05-12T06:42:12.249Z,12.17
2023-05-12T06:47:18.667Z,12.41
2023-05-12T06:52:24.246Z,12.80
2023-05-12T06:57:26.979Z,12.90
2023-05-12T07:02:30.359Z,12.95
2023-05-12T07:07:35.567Z,12.94
2023-05-12T07:12:41.334Z,13.08
2023-05-12T07:17:44.155Z,13.14
2023-05-12T07:22:49.213Z,13.32
2023-05-12T07:27:52.320Z,13.65
2023-05-12T07:32:55.903Z,14.05
2023-05-12T07:38:02.858Z,14.33
2023-05-12T07:43:05.816Z,14.36
2023-05-12T07:48:09.528Z,14.36
2023-05-12T07:53:15.353Z,14.09
2023-05-12T07:58:18.079Z,14.15
2023-05-12T08:03:21.146Z,14.23
2023-05-12T08:08:28.412Z,14.15
2023-05-12T08:13:31.212Z,14.04
2023-05-12T08:18:34.382Z,13.90
2023-05-12T08:23:41.122Z,14.01
2023-05-12T08:28:43.936Z,14.10
2023-05-12T08:33:51.758Z,14.56
2023-05-12T08:38:58.348Z,14.77
2023-05-12T08:44:01.392Z,14.83
2023-05-12T08:49:05.593Z,14.94
2023-05-12T08:54:10.981Z,14.73
2023-05-12T08:59:15.372Z,14.93
2023-05-12T09:04:18.204Z,15.25
2023-05-12T09:09:23.181Z,15.62
2023-05-12T09:14:30.516Z,15.64
2023-05-12T09:19:35.064Z,15.43
2023-05-12T09:24:40.617Z,15.87
2023-05-12T09:29:58.534Z,16.16
2023-05-12T09:35:07.959Z,17.15
2023-05-12T09:40:15.952Z,17.36
2023-05-12T09:45:22.838Z,17.83
2023-05-12T09:50:32.505Z,17.56
2023-05-12T09:55:44.029Z,16.95
2023-05-12T10:05:57.441Z,17.24
2023-05-12T10:11:03.484Z,16.77
2023-05-12T10:16:09.295Z,17.47
2023-05-12T10:21:14.031Z,17.42
2023-05-12T10:26:18.881Z,17.27
2023-05-12T10:31:24.392Z,17.18
2023-05-12T10:36:27.624Z,18.56
2023-05-12T10:41:33.313Z,19.25
2023-05-12T10:46:36.431Z,18.70
2023-05-12T10:51:52.031Z,17.76
2023-05-12T10:56:59.943Z,17.91
2023-05-12T11:02:09.000Z,18.60
2023-05-12T11:07:16.714Z,18.48
2023-05-12T11:12:21.369Z,19.35
2023-05-12T11:17:25.558Z,18.97
2023-05-12T11:22:33.724Z,18.75
2023-05-12T11:27:39.284Z,18.45
2023-05-12T11:32:42.470Z,17.93
2023-05-12T11:37:47.926Z,19.21
2023-05-12T11:42:55.712Z,19.56
2023-05-12T11:48:09.473Z,20.36
2023-05-12T11:53:14.764Z,20.34
2023-05-12T11:58:23.785Z,20.28
2023-05-12T12:03:26.966Z,19.14
2023-05-12T12:08:30.490Z,18.66
2023-05-12T12:13:36.682Z,18.44
2023-05-12T12:18:40.999Z,18.37
2023-05-12T12:23:50.816Z,18.50
2023-05-12T12:28:57.538Z,18.74
2023-05-12T12:34:01.530Z,18.59
2023-05-12T12:39:04.711Z,18.78
2023-05-12T12:44:09.600Z,17.62
2023-05-12T12:49:12.355Z,17.68
2023-05-12T12:54:15.669Z,17.51
2023-05-12T12:59:19.847Z,17.73
2023-05-12T13:04:23.575Z,17.82
2023-05-12T13:09:28.034Z,17.62
2023-05-12T13:14:32.531Z,17.42
2023-05-12T13:19:38.076Z,17.42
2023-05-12T13:24:41.551Z,17.67
2023-05-12T13:29:47.207Z,18.09
2023-05-12T13:34:52.445Z,18.05
2023-05-12T13:39:55.615Z,17.86
2023-05-12T13:45:00.013Z,18.98
2023-05-12T13:50:02.927Z,18.71
2023-05-12T13:55:06.404Z,18.45
2023-05-12T14:00:14.590Z,18.55
2023-05-12T14:05:23.461Z,18.65
2023-05-12T14:10:26.509Z,18.48
2023-05-12T14:15:47.330Z,18.35
2023-05-12T14:20:55.270Z,18.67
2023-05-12T14:25:58.689Z,18.41
2023-05-12T14:31:03.547Z,19.00
2023-05-12T14:36:10.775Z,19.26
2023-05-12T14:41:13.794Z,18.99
2023-05-12T14:46:18.701Z,19.29
2023-05-12T14:51:22.510Z,18.96
2023-05-12T14:56:25.782Z,19.30
2023-05-12T15:01:29.916Z,19.76
2023-05-12T15:06:33.974Z,19.89
2023-05-12T15:11:36.919Z,18.92
2023-05-12T15:16:44.254Z,18.81
2023-05-12T15:21:47.731Z,18.25
2023-05-12T15:26:53.105Z,18.33
2023-05-12T15:31:57.340Z,18.04
2023-05-12T15:37:00.723Z,17.79
2023-05-12T15:42:05.576Z,17.68
2023-05-12T15:47:11.627Z,16.74
2023-05-12T15:52:15.228Z,15.85
2023-05-12T15:57:18.685Z,15.69
2023-05-12T16:02:22.804Z,15.36
2023-05-12T16:07:29.380Z,14.82
2023-05-12T16:12:32.708Z,14.61
2023-05-12T16:17:37.738Z,14.55
2023-05-12T16:22:42.798Z,14.38
2023-05-12T16:27:46.193Z,14.58
2023-05-12T16:32:51.778Z,14.60
2023-05-12T16:37:54.695Z,14.46
2023-05-12T16:42:57.776Z,14.25
2023-05-12T16:48:02.181Z,14.07
2023-05-12T16:53:05.722Z,14.01
2023-05-12T16:58:10.967Z,14.00
2023-05-12T17:03:15.864Z,13.95
2023-05-12T17:08:20.058Z,13.97
2023-05-12T17:13:23.792Z,14.21
2023-05-12T17:18:27.901Z,14.54
2023-05-12T17:23:31.750Z,14.67
2023-05-12T17:28:34.528Z,14.61
2023-05-12T17:33:40.380Z,14.60
2023-05-12T17:38:43.832Z,14.39
2023-05-12T17:43:47.674Z,14.28
2023-05-12T17:48:51.852Z,14.30
2023-05-12T17:53:54.593Z,14.27
2023-05-12T17:58:59.350Z,14.30
2023-05-12T18:04:03.680Z,14.24
2023-05-12T18:09:08.621Z,14.22
2023-05-12T18:14:11.527Z,14.28
2023-05-12T18:19:16.335Z,14.27
2023-05-12T18:24:19.451Z,14.26
2023-05-12T18:29:22.804Z,14.29
2023-05-12T18:34:27.423Z,14.28
2023-05-12T18:39:31.172Z,14.29
2023-05-12T18:44:36.262Z,14.13
2023-05-12T18:49:40.397Z,14.00
2023-05-12T18:54:46.867Z,13.81
2023-05-12T18:59:51.740Z,13.70
2023-05-12T19:04:56.232Z,13.60
2023-05-12T19:09:59.836Z,13.52
2023-05-12T19:15:02.644Z,13.36
2023-05-12T19:20:09.913Z,13.33
2023-05-12T19:25:17.823Z,13.27
2023-05-12T19:30:21.284Z,13.17
2023-05-12T19:35:25.913Z,13.05
2023-05-12T19:40:30.612Z,12.95
2023-05-12T19:45:34.796Z,12.84
2023-05-12T19:50:40.077Z,12.71
2023-05-12T19:55:43.505Z,12.61
2023-05-12T20:00:46.215Z,12.50
2023-05-12T20:05:50.886Z,12.41
2023-05-12T20:10:53.625Z,12.31
2023-05-12T20:15:56.441Z,12.19
2023-05-12T20:21:01.148Z,12.10
2023-05-12T20:26:04.910Z,11.93
2023-05-12T20:31:09.699Z,11.91
2023-05-12T20:36:13.794Z,11.89
2023-05-12T20:41:17.035Z,11.87
2023-05-12T20:46:20.082Z,11.87
2023-05-12T20:51:24.572Z,11.74
2023-05-12T20:56:27.593Z,11.67
2023-05-12T21:01:31.034Z,11.55
2023-05-12T21:06:36.562Z,11.50
2023-05-12T21:11:39.864Z,11.46
2023-05-12T21:16:42.653Z,11.38
2023-05-12T21:21:46.864Z,11.40
2023-05-12T21:26:49.576Z,11.34
2023-05-12T21:31:52.377Z,11.29
2023-05-12T21:36:56.801Z,11.23
2023-05-12T21:42:01.625Z,11.16
2023-05-12T21:47:04.581Z,11.15
2023-05-12T21:52:08.980Z,11.09
2023-05-12T21:57:12.603Z,11.10
2023-05-12T22:02:15.434Z,11.04
2023-05-12T22:07:19.777Z,10.98
2023-05-12T22:12:22.692Z,10.83
2023-05-12T22:17:25.672Z,10.72
2023-05-12T22:22:30.022Z,10.63
2023-05-12T22:27:32.795Z,10.55
2023-05-12T22:32:35.587Z,10.47
2023-05-12T22:37:40.481Z,10.40
2023-05-12T22:42:43.328Z,10.29
2023-05-12T22:47:46.106Z,10.22
2023-05-12T22:52:50.310Z,10.17
2023-05-12T22:57:53.429Z,9.95
2023-05-12T23:02:56.295Z,9.91
2023-05-12T23:08:00.570Z,9.87
2023-05-12T23:13:03.325Z,9.70
2023-05-12T23:18:06.135Z,9.68
2023-05-12T23:23:11.070Z,9.58
2023-05-12T23:28:13.785Z,9.55
2023-05-12T23:33:16.615Z,9.49
2023-05-12T23:38:20.877Z,9.34
2023-05-12T23:43:23.572Z,9.34
2023-05-12T23:48:26.294Z,9.27
2023-05-12T23:53:30.479Z,9.26
2023-05-12T23:58:33.299Z,9.16
